sensor_id;sensor_type;location;lat;lon;timestamp;pressure;altitude;pressure_sealevel;temperature;humidity
34500;BME280;20745;50.882;6.962;2023-02-13T00:02:24;103085.47;;;10.20;100.00
34500;BME280;20745;50.882;6.962;2023-02-13T00:04:50;103099.94;;;10.19;100.00
34500;BME280;20745;50.882;6.962;2023-02-13T00:07:17;103091.59;;;10.22;100.00
34500;BME280;20745;50.882;6.962;2023-02-13T00:09:43;103093.69;;;10.19;100.00
34500;BME280;20745;50.882;6.962;2023-02-13T00:12:10;103090.13;;;10.18;100.00
34500;BME280;20745;50.882;6.962;2023-02-13T00:14:37;103086.94;;;10.13;100.00
34500;BME280;20745;50.882;6.962;2023-02-13T00:17:05;103080.31;;;10.17;100.00
34500;BME280;20745;50.882;6.962;2023-02-13T00:19:32;103092.22;;;10.15;100.00
34500;BME280;20745;50.882;6.962;2023-02-13T00:21:58;103086.56;;;10.18;100.00
34500;BME280;20745;50.882;6.962;2023-02-13T00:24:25;103083.13;;;10.16;100.00
34500;BME280;20745;50.882;6.962;2023-02-13T00:26:51;103087.53;;;10.17;100.00
34500;BME280;20745;50.882;6.962;2023-02-13T00:29:18;103089.38;;;10.16;100.00
34500;BME280;20745;50.882;6.962;2023-02-13T00:31:45;103076.63;;;10.18;100.00
34500;BME280;20745;50.882;6.962;2023-02-13T00:34:11;103075.63;;;10.19;100.00
34500;BME280;20745;50.882;6.962;2023-02-13T00:36:38;103073.06;;;10.18;100.00
34500;BME280;20745;50.882;6.962;2023-02-13T00:39:04;103068.41;;;10.20;100.00
34500;BME280;20745;50.882;6.962;2023-02-13T00:41:31;103071.97;;;10.20;100.00
34500;BME280;20745;50.882;6.962;2023-02-13T00:43:57;103072.94;;;10.19;100.00
34500;BME280;20745;50.882;6.962;2023-02-13T00:46:24;103075.16;;;10.14;100.00
34500;BME280;20745;50.882;6.962;2023-02-13T00:48:50;103075.75;;;10.18;100.00
34500;BME280;20745;50.882;6.962;2023-02-13T00:51:17;103068.53;;;10.18;100.00
34500;BME280;20745;50.882;6.962;2023-02-13T00:53:43;103069.28;;;10.20;100.00
34500;BME280;20745;50.882;6.962;2023-02-13T00:56:10;103067.53;;;10.19;100.00
34500;BME280;20745;50.882;6.962;2023-02-13T00:58:37;103063.25;;;10.17;100.00
34500;BME280;20745;50.882;6.962;2023-02-13T01:01:04;103058.72;;;10.17;100.00
34500;BME280;20745;50.882;6.962;2023-02-13T01:03:30;103050.38;;;10.20;100.00
34500;BME280;20745;50.882;6.962;2023-02-13T01:05:57;103042.75;;;10.14;100.00
34500;BME280;20745;50.882;6.962;2023-02-13T01:08:23;103052.69;;;10.14;100.00
34500;BME280;20745;50.882;6.962;2023-02-13T01:10:50;103054.66;;;10.12;100.00
34500;BME280;20745;50.882;6.962;2023-02-13T01:13:17;103053.28;;;10.06;100.00
34500;BME280;20745;50.882;6.962;2023-02-13T01:15:45;103049.72;;;10.06;100.00
34500;BME280;20745;50.882;6.962;2023-02-13T01:18:13;103046.91;;;10.07;100.00
34500;BME280;20745;50.882;6.962;2023-02-13T01:20:41;103046.91;;;10.07;100.00
34500;BME280;20745;50.882;6.962;2023-02-13T01:23:10;103038.69;;;10.09;100.00
34500;BME280;20745;50.882;6.962;2023-02-13T01:25:41;103039.91;;;10.05;100.00
34500;BME280;20745;50.882;6.962;2023-02-13T01:28:08;103041.28;;;10.10;100.00
34500;BME280;20745;50.882;6.962;2023-02-13T01:30:35;103044.94;;;10.09;100.00
34500;BME280;20745;50.882;6.962;2023-02-13T01:33:02;103053.28;;;10.06;100.00
34500;BME280;20745;50.882;6.962;2023-02-13T01:35:28;103048.50;;;10.10;100.00
34500;BME280;20745;50.882;6.962;2023-02-13T01:37:55;103036.72;;;10.11;100.00
34500;BME280;20745;50.882;6.962;2023-02-13T01:40:21;103045.28;;;10.05;100.00
34500;BME280;20745;50.882;6.962;2023-02-13T01:42:48;103039.78;;;10.06;100.00
34500;BME280;20745;50.882;6.962;2023-02-13T01:45:26;103041.72;;;10.04;100.00
34500;BME280;20745;50.882;6.962;2023-02-13T01:47:55;103031.69;;;10.06;100.00
34500;BME280;20745;50.882;6.962;2023-02-13T01:50:33;103035.25;;;10.07;100.00
34500;BME280;20745;50.882;6.962;2023-02-13T01:53:12;103042.47;;;10.06;100.00
34500;BME280;20745;50.882;6.962;2023-02-13T01:56:10;103038.69;;;10.09;100.00
34500;BME280;20745;50.882;6.962;2023-02-13T01:58:40;103045.94;;;10.08;100.00
34500;BME280;20745;50.882;6.962;2023-02-13T02:01:08;103032.31;;;10.10;100.00
34500;BME280;20745;50.882;6.962;2023-02-13T02:03:42;103036.97;;;10.08;100.00
34500;BME280;20745;50.882;6.962;2023-02-13T02:06:14;103040.97;;;10.02;100.00
34500;BME280;20745;50.882;6.962;2023-02-13T02:08:46;103043.44;;;10.05;100.00
34500;BME280;20745;50.882;6.962;2023-02-13T02:11:30;103049.94;;;10.02;100.00
34500;BME280;20745;50.882;6.962;2023-02-13T02:13:57;103044.78;;;9.99;100.00
34500;BME280;20745;50.882;6.962;2023-02-13T02:16:25;103048.84;;;10.05;100.00
34500;BME280;20745;50.882;6.962;2023-02-13T02:18:52;103052.31;;;10.07;100.00
34500;BME280;20745;50.882;6.962;2023-02-13T02:24:19;103051.53;;;10.05;100.00
34500;BME280;20745;50.882;6.962;2023-02-13T02:29:51;103054.03;;;10.08;100.00
34500;BME280;20745;50.882;6.962;2023-02-13T02:32:39;103054.47;;;10.02;100.00
34500;BME280;20745;50.882;6.962;2023-02-13T02:35:46;103052.78;;;10.01;100.00
34500;BME280;20745;50.882;6.962;2023-02-13T02:40:57;103050.69;;;10.05;100.00
34500;BME280;20745;50.882;6.962;2023-02-13T02:43:39;103039.16;;;10.02;100.00
34500;BME280;20745;50.882;6.962;2023-02-13T02:46:15;103042.84;;;10.02;100.00
34500;BME280;20745;50.882;6.962;2023-02-13T02:48:56;103045.66;;;10.00;100.00
34500;BME280;20745;50.882;6.962;2023-02-13T02:52:11;103047.59;;;9.98;100.00
34500;BME280;20745;50.882;6.962;2023-02-13T02:54:46;103038.28;;;10.02;100.00
34500;BME280;20745;50.882;6.962;2023-02-13T02:57:38;103036.69;;;9.99;100.00
34500;BME280;20745;50.882;6.962;2023-02-13T03:00:27;103047.59;;;9.98;100.00
34500;BME280;20745;50.882;6.962;2023-02-13T03:03:21;103043.44;;;9.94;100.00
34500;BME280;20745;50.882;6.962;2023-02-13T03:06:38;103047.72;;;9.96;100.00
34500;BME280;20745;50.882;6.962;2023-02-13T03:09:06;103050.53;;;9.95;100.00
34500;BME280;20745;50.882;6.962;2023-02-13T03:11:54;103048.09;;;9.92;100.00
34500;BME280;20745;50.882;6.962;2023-02-13T03:14:41;103052.41;;;9.94;100.00
34500;BME280;20745;50.882;6.962;2023-02-13T03:17:11;103055.22;;;9.93;100.00
34500;BME280;20745;50.882;6.962;2023-02-13T03:23:20;103056.53;;;9.87;100.00
34500;BME280;20745;50.882;6.962;2023-02-13T03:26:12;103047.09;;;9.82;100.00
34500;BME280;20745;50.882;6.962;2023-02-13T03:28:58;103054.59;;;9.89;100.00
34500;BME280;20745;50.882;6.962;2023-02-13T03:31:58;103040.63;;;9.84;100.00
34500;BME280;20745;50.882;6.962;2023-02-13T03:34:34;103059.25;;;9.87;100.00
34500;BME280;20745;50.882;6.962;2023-02-13T03:37:34;103056.94;;;9.83;100.00
34500;BME280;20745;50.882;6.962;2023-02-13T03:40:37;103049.91;;;9.80;100.00
34500;BME280;20745;50.882;6.962;2023-02-13T03:43:29;103049.56;;;9.85;100.00
34500;BME280;20745;50.882;6.962;2023-02-13T03:45:58;103049.06;;;9.80;100.00
34500;BME280;20745;50.882;6.962;2023-02-13T03:48:35;103049.91;;;9.80;100.00
34500;BME280;20745;50.882;6.962;2023-02-13T03:51:33;103054.47;;;9.80;100.00
34500;BME280;20745;50.882;6.962;2023-02-13T03:54:06;103048.66;;;9.73;100.00
34500;BME280;20745;50.882;6.962;2023-02-13T03:56:39;103053.34;;;9.71;100.00
34500;BME280;20745;50.882;6.962;2023-02-13T03:59:29;103048.66;;;9.73;100.00
34500;BME280;20745;50.882;6.962;2023-02-13T04:02:08;103049.19;;;9.78;100.00
34500;BME280;20745;50.882;6.962;2023-02-13T04:04:47;103047.56;;;9.76;100.00
34500;BME280;20745;50.882;6.962;2023-02-13T04:07:17;103039.97;;;9.81;100.00
34500;BME280;20745;50.882;6.962;2023-02-13T04:10:12;103049.66;;;9.72;100.00
34500;BME280;20745;50.882;6.962;2023-02-13T04:12:50;103048.91;;;9.70;100.00
34500;BME280;20745;50.882;6.962;2023-02-13T04:15:31;103046.31;;;9.69;100.00
34500;BME280;20745;50.882;6.962;2023-02-13T04:20:41;103054.53;;;9.67;100.00
34500;BME280;20745;50.882;6.962;2023-02-13T04:23:09;103056.88;;;9.61;100.00
34500;BME280;20745;50.882;6.962;2023-02-13T04:25:38;103057.84;;;9.60;100.00
34500;BME280;20745;50.882;6.962;2023-02-13T04:28:06;103047.53;;;9.54;100.00
34500;BME280;20745;50.882;6.962;2023-02-13T04:30:32;103059.69;;;9.59;100.00
34500;BME280;20745;50.882;6.962;2023-02-13T04:32:59;103066.06;;;9.58;100.00
34500;BME280;20745;50.882;6.962;2023-02-13T04:35:25;103061.13;;;9.52;100.00
34500;BME280;20745;50.882;6.962;2023-02-13T04:37:52;103060.50;;;9.49;100.00
34500;BME280;20745;50.882;6.962;2023-02-13T04:40:18;103059.66;;;9.48;100.00
34500;BME280;20745;50.882;6.962;2023-02-13T04:42:48;103063.69;;;9.43;100.00
34500;BME280;20745;50.882;6.962;2023-02-13T04:45:15;103062.69;;;9.44;100.00
34500;BME280;20745;50.882;6.962;2023-02-13T04:47:42;103050.66;;;9.37;100.00
34500;BME280;20745;50.882;6.962;2023-02-13T04:50:09;103053.13;;;9.40;100.00
34500;BME280;20745;50.882;6.962;2023-02-13T04:52:35;103053.25;;;9.38;100.00
34500;BME280;20745;50.882;6.962;2023-02-13T04:55:02;103047.44;;;9.32;100.00
34500;BME280;20745;50.882;6.962;2023-02-13T04:57:29;103042.78;;;9.23;100.00
34500;BME280;20745;50.882;6.962;2023-02-13T04:59:55;103047.41;;;9.21;100.00
34500;BME280;20745;50.882;6.962;2023-02-13T05:02:22;103040.88;;;9.12;100.00
34500;BME280;20745;50.882;6.962;2023-02-13T05:04:48;103041.09;;;9.09;100.00
34500;BME280;20745;50.882;6.962;2023-02-13T05:07:15;103038.53;;;9.08;100.00
34500;BME280;20745;50.882;6.962;2023-02-13T05:09:41;103042.31;;;9.05;100.00
34500;BME280;20745;50.882;6.962;2023-02-13T05:12:07;103044.16;;;9.05;100.00
34500;BME280;20745;50.882;6.962;2023-02-13T05:14:34;103040.94;;;9.00;100.00
34500;BME280;20745;50.882;6.962;2023-02-13T05:17:00;103042.25;;;8.94;100.00
34500;BME280;20745;50.882;6.962;2023-02-13T05:19:27;103042.34;;;8.93;100.00
34500;BME280;20745;50.882;6.962;2023-02-13T05:21:53;103045.31;;;8.90;100.00
34500;BME280;20745;50.882;6.962;2023-02-13T05:24:38;103056.81;;;8.92;100.00
34500;BME280;20745;50.882;6.962;2023-02-13T05:27:04;103051.66;;;8.89;100.00
34500;BME280;20745;50.882;6.962;2023-02-13T05:29:31;103054.78;;;8.83;100.00
34500;BME280;20745;50.882;6.962;2023-02-13T05:31:58;103036.84;;;8.71;100.00
34500;BME280;20745;50.882;6.962;2023-02-13T05:34:26;103050.38;;;8.82;100.00
34500;BME280;20745;50.882;6.962;2023-02-13T05:36:53;103048.69;;;8.81;100.00
34500;BME280;20745;50.882;6.962;2023-02-13T05:39:20;103044.50;;;8.77;100.00
34500;BME280;20745;50.882;6.962;2023-02-13T05:41:47;103055.72;;;8.71;100.00
34500;BME280;20745;50.882;6.962;2023-02-13T05:44:15;103045.38;;;8.65;100.00
34500;BME280;20745;50.882;6.962;2023-02-13T05:46:43;103047.56;;;8.60;100.00
34500;BME280;20745;50.882;6.962;2023-02-13T05:49:12;103058.25;;;8.61;100.00
34500;BME280;20745;50.882;6.962;2023-02-13T05:51:42;103052.09;;;8.59;100.00
34500;BME280;20745;50.882;6.962;2023-02-13T05:54:08;103054.03;;;8.57;100.00
34500;BME280;20745;50.882;6.962;2023-02-13T05:56:35;103050.50;;;8.57;100.00
34500;BME280;20745;50.882;6.962;2023-02-13T05:59:02;103055.34;;;8.52;100.00
34500;BME280;20745;50.882;6.962;2023-02-13T06:01:29;103057.31;;;8.50;100.00
34500;BME280;20745;50.882;6.962;2023-02-13T06:03:55;103061.91;;;8.48;100.00
34500;BME280;20745;50.882;6.962;2023-02-13T06:06:25;103056.88;;;8.43;100.00
34500;BME280;20745;50.882;6.962;2023-02-13T06:08:51;103063.34;;;8.41;100.00
34500;BME280;20745;50.882;6.962;2023-02-13T06:11:18;103057.50;;;8.34;100.00
34500;BME280;20745;50.882;6.962;2023-02-13T06:13:45;103060.09;;;8.36;100.00
34500;BME280;20745;50.882;6.962;2023-02-13T06:16:11;103058.59;;;8.32;100.00
34500;BME280;20745;50.882;6.962;2023-02-13T06:18:38;103057.97;;;8.28;100.00
34500;BME280;20745;50.882;6.962;2023-02-13T06:21:06;103060.56;;;8.30;100.00
34500;BME280;20745;50.882;6.962;2023-02-13T06:23:33;103031.25;;;8.13;100.00
34500;BME280;20745;50.882;6.962;2023-02-13T06:26:05;103064.22;;;8.29;100.00
34500;BME280;20745;50.882;6.962;2023-02-13T06:28:32;103055.81;;;8.33;100.00
34500;BME280;20745;50.882;6.962;2023-02-13T06:30:59;103064.00;;;8.32;100.00
34500;BME280;20745;50.882;6.962;2023-02-13T06:33:27;103052.06;;;8.23;100.00
34500;BME280;20745;50.882;6.962;2023-02-13T06:35:53;103062.72;;;8.25;100.00
34500;BME280;20745;50.882;6.962;2023-02-13T06:38:20;103058.19;;;8.25;100.00
34500;BME280;20745;50.882;6.962;2023-02-13T06:40:47;103054.94;;;8.20;100.00
34500;BME280;20745;50.882;6.962;2023-02-13T06:43:15;103053.94;;;8.21;100.00
34500;BME280;20745;50.882;6.962;2023-02-13T06:45:42;103051.63;;;8.17;100.00
34500;BME280;20745;50.882;6.962;2023-02-13T06:48:08;103057.72;;;8.19;100.00
34500;BME280;20745;50.882;6.962;2023-02-13T06:50:35;103053.94;;;8.21;100.00
34500;BME280;20745;50.882;6.962;2023-02-13T06:53:01;103051.41;;;8.20;100.00
34500;BME280;20745;50.882;6.962;2023-02-13T06:55:28;103058.41;;;8.22;100.00
34500;BME280;20745;50.882;6.962;2023-02-13T06:57:54;103051.19;;;8.23;100.00
34500;BME280;20745;50.882;6.962;2023-02-13T07:00:22;103044.59;;;8.14;100.00
34500;BME280;20745;50.882;6.962;2023-02-13T07:02:51;103050.63;;;8.18;100.00
34500;BME280;20745;50.882;6.962;2023-02-13T07:05:18;103047.94;;;8.18;100.00
34500;BME280;20745;50.882;6.962;2023-02-13T07:07:44;103053.53;;;8.15;100.00
34500;BME280;20745;50.882;6.962;2023-02-13T07:10:12;103051.06;;;8.12;100.00
34500;BME280;20745;50.882;6.962;2023-02-13T07:12:38;103049.25;;;8.12;100.00
34500;BME280;20745;50.882;6.962;2023-02-13T07:15:05;103058.16;;;8.13;100.00
34500;BME280;20745;50.882;6.962;2023-02-13T07:17:33;103046.44;;;8.14;100.00
34500;BME280;20745;50.882;6.962;2023-02-13T07:19:59;103054.53;;;8.14;100.00
34500;BME280;20745;50.882;6.962;2023-02-13T07:22:26;103053.97;;;8.09;100.00
34500;BME280;20745;50.882;6.962;2023-02-13T07:25:02;103061.84;;;8.12;100.00
34500;BME280;20745;50.882;6.962;2023-02-13T07:27:29;103061.22;;;8.08;100.00
34500;BME280;20745;50.882;6.962;2023-02-13T07:29:56;103049.78;;;8.05;100.00
34500;BME280;20745;50.882;6.962;2023-02-13T07:32:23;103060.97;;;8.11;100.00
34500;BME280;20745;50.882;6.962;2023-02-13T07:34:50;103060.34;;;8.08;100.00
34500;BME280;20745;50.882;6.962;2023-02-13T07:37:28;103051.72;;;8.15;100.00
34500;BME280;20745;50.882;6.962;2023-02-13T07:39:54;103055.34;;;8.14;100.00
34500;BME280;20745;50.882;6.962;2023-02-13T07:42:21;103057.22;;;8.14;100.00
34500;BME280;20745;50.882;6.962;2023-02-13T07:44:47;103051.06;;;8.12;100.00
34500;BME280;20745;50.882;6.962;2023-02-13T07:47:14;103060.31;;;8.20;100.00
34500;BME280;20745;50.882;6.962;2023-02-13T07:49:42;103064.97;;;8.18;100.00
34500;BME280;20745;50.882;6.962;2023-02-13T07:52:09;103060.31;;;8.20;100.00
34500;BME280;20745;50.882;6.962;2023-02-13T07:54:36;103068.66;;;8.30;100.00
34500;BME280;20745;50.882;6.962;2023-02-13T07:57:03;103057.13;;;8.28;100.00
34500;BME280;20745;50.882;6.962;2023-02-13T07:59:29;103066.06;;;8.28;100.00
34500;BME280;20745;50.882;6.962;2023-02-13T08:01:56;103058.19;;;8.25;100.00
34500;BME280;20745;50.882;6.962;2023-02-13T08:04:22;103055.28;;;8.28;100.00
34500;BME280;20745;50.882;6.962;2023-02-13T08:06:51;103062.06;;;8.34;100.00
34500;BME280;20745;50.882;6.962;2023-02-13T08:09:19;103056.69;;;8.34;100.00
34500;BME280;20745;50.882;6.962;2023-02-13T08:12:07;103059.66;;;8.42;100.00
34500;BME280;20745;50.882;6.962;2023-02-13T08:14:34;103070.22;;;8.45;100.00
34500;BME280;20745;50.882;6.962;2023-02-13T08:17:01;103065.50;;;8.48;100.00
34500;BME280;20745;50.882;6.962;2023-02-13T08:19:27;103070.50;;;8.53;100.00
34500;BME280;20745;50.882;6.962;2023-02-13T08:21:55;103066.75;;;8.55;100.00
34500;BME280;20745;50.882;6.962;2023-02-13T08:24:22;103076.44;;;8.58;100.00
34500;BME280;20745;50.882;6.962;2023-02-13T08:26:49;103068.03;;;8.62;100.00
34500;BME280;20745;50.882;6.962;2023-02-13T08:29:15;103076.72;;;8.66;100.00
34500;BME280;20745;50.882;6.962;2023-02-13T08:31:42;103064.34;;;8.63;100.00
34500;BME280;20745;50.882;6.962;2023-02-13T08:34:09;103080.28;;;8.66;100.00
34500;BME280;20745;50.882;6.962;2023-02-13T08:36:36;103068.25;;;8.59;100.00
34500;BME280;20745;50.882;6.962;2023-02-13T08:39:02;103079.44;;;8.66;100.00
34500;BME280;20745;50.882;6.962;2023-02-13T08:41:29;103069.13;;;8.60;100.00
34500;BME280;20745;50.882;6.962;2023-02-13T08:43:55;103077.59;;;8.66;100.00
34500;BME280;20745;50.882;6.962;2023-02-13T08:46:21;103079.84;;;8.72;100.00
34500;BME280;20745;50.882;6.962;2023-02-13T08:48:49;103083.06;;;8.77;100.00
34500;BME280;20745;50.882;6.962;2023-02-13T08:51:15;103080.47;;;8.76;100.00
34500;BME280;20745;50.882;6.962;2023-02-13T08:53:42;103085.75;;;8.77;100.00
34500;BME280;20745;50.882;6.962;2023-02-13T08:56:08;103076.94;;;8.75;100.00
34500;BME280;20745;50.882;6.962;2023-02-13T08:58:35;103096.19;;;8.82;100.00
34500;BME280;20745;50.882;6.962;2023-02-13T09:01:06;103093.50;;;8.82;100.00
34500;BME280;20745;50.882;6.962;2023-02-13T09:03:33;103086.19;;;8.84;100.00
34500;BME280;20745;50.882;6.962;2023-02-13T09:06:01;103080.91;;;8.82;100.00
34500;BME280;20745;50.882;6.962;2023-02-13T09:08:28;103077.88;;;8.87;100.00
34500;BME280;20745;50.882;6.962;2023-02-13T09:10:59;103083.78;;;8.92;100.00
34500;BME280;20745;50.882;6.962;2023-02-13T09:13:30;103080.41;;;9.01;100.00
34500;BME280;20745;50.882;6.962;2023-02-13T09:16:03;103078.22;;;9.06;100.00
34500;BME280;20745;50.882;6.962;2023-02-13T09:18:33;103074.78;;;9.04;100.00
34500;BME280;20745;50.882;6.962;2023-02-13T09:21:03;103080.28;;;9.02;100.00
34500;BME280;20745;50.882;6.962;2023-02-13T09:23:32;103079.94;;;9.07;100.00
34500;BME280;20745;50.882;6.962;2023-02-13T09:26:00;103078.97;;;9.08;100.00
34500;BME280;20745;50.882;6.962;2023-02-13T09:28:32;103074.56;;;9.07;100.00
34500;BME280;20745;50.882;6.962;2023-02-13T09:31:04;103081.44;;;9.11;100.00
34500;BME280;20745;50.882;6.962;2023-02-13T09:33:31;103077.13;;;9.08;100.00
34500;BME280;20745;50.882;6.962;2023-02-13T09:35:58;103079.72;;;9.10;100.00
34500;BME280;20745;50.882;6.962;2023-02-13T09:38:25;103082.19;;;9.13;100.00
34500;BME280;20745;50.882;6.962;2023-02-13T09:40:58;103080.97;;;9.17;100.00
34500;BME280;20745;50.882;6.962;2023-02-13T09:46:29;103077.56;;;9.26;100.00
34500;BME280;20745;50.882;6.962;2023-02-13T09:48:59;103080.78;;;9.31;100.00
34500;BME280;20745;50.882;6.962;2023-02-13T09:51:27;103079.81;;;9.32;100.00
34500;BME280;20745;50.882;6.962;2023-02-13T09:53:57;103083.25;;;9.34;100.00
34500;BME280;20745;50.882;6.962;2023-02-13T09:56:36;103078.00;;;9.43;100.00
34500;BME280;20745;50.882;6.962;2023-02-13T09:59:45;103074.75;;;9.51;100.00
34500;BME280;20745;50.882;6.962;2023-02-13T10:02:38;103079.91;;;9.54;100.00
34500;BME280;20745;50.882;6.962;2023-02-13T10:05:38;103085.06;;;9.57;100.00
34500;BME280;20745;50.882;6.962;2023-02-13T10:10:51;103085.44;;;9.63;100.00
34500;BME280;20745;50.882;6.962;2023-02-13T10:16:17;103077.75;;;9.70;100.00
34500;BME280;20745;50.882;6.962;2023-02-13T10:18:52;103079.09;;;9.75;100.00
34500;BME280;20745;50.882;6.962;2023-02-13T10:21:25;103076.91;;;9.80;100.00
34500;BME280;20745;50.882;6.962;2023-02-13T10:23:59;103080.13;;;9.85;100.00
34500;BME280;20745;50.882;6.962;2023-02-13T10:26:31;103076.44;;;9.86;100.00
34500;BME280;20745;50.882;6.962;2023-02-13T10:29:16;103081.59;;;9.89;100.00
34500;BME280;20745;50.882;6.962;2023-02-13T10:32:08;103068.84;;;9.91;100.00
34500;BME280;20745;50.882;6.962;2023-02-13T10:34:44;103080.00;;;9.98;100.00
34500;BME280;20745;50.882;6.962;2023-02-13T10:37:16;103073.50;;;10.00;100.00
34500;BME280;20745;50.882;6.962;2023-02-13T10:39:46;103079.41;;;10.06;100.00
34500;BME280;20745;50.882;6.962;2023-02-13T10:42:22;103070.00;;;10.11;100.00
34500;BME280;20745;50.882;6.962;2023-02-13T10:53:48;103066.69;;;10.30;100.00
34500;BME280;20745;50.882;6.962;2023-02-13T10:56:26;103051.59;;;10.27;100.00
34500;BME280;20745;50.882;6.962;2023-02-13T11:04:12;103050.84;;;10.47;100.00
34500;BME280;20745;50.882;6.962;2023-02-13T11:06:42;103048.84;;;10.49;100.00
34500;BME280;20745;50.882;6.962;2023-02-13T11:09:12;103056.59;;;10.54;100.00
34500;BME280;20745;50.882;6.962;2023-02-13T11:11:41;103046.53;;;10.56;100.00
34500;BME280;20745;50.882;6.962;2023-02-13T11:17:05;103042.09;;;10.66;100.00
34500;BME280;20745;50.882;6.962;2023-02-13T11:19:46;103024.03;;;10.66;100.00
34500;BME280;20745;50.882;6.962;2023-02-13T11:22:39;103027.97;;;10.73;100.00
34500;BME280;20745;50.882;6.962;2023-02-13T11:25:25;103018.34;;;10.80;100.00
34500;BME280;20745;50.882;6.962;2023-02-13T11:28:09;103012.44;;;10.75;100.00
34500;BME280;20745;50.882;6.962;2023-02-13T11:30:41;103022.25;;;10.87;100.00
34500;BME280;20745;50.882;6.962;2023-02-13T11:33:26;103018.19;;;10.93;100.00
34500;BME280;20745;50.882;6.962;2023-02-13T11:36:12;103020.25;;;11.00;100.00
34500;BME280;20745;50.882;6.962;2023-02-13T11:38:40;103002.44;;;10.98;100.00
34500;BME280;20745;50.882;6.962;2023-02-13T11:41:12;103003.91;;;11.02;100.00
34500;BME280;20745;50.882;6.962;2023-02-13T11:44:00;102999.06;;;11.05;100.00
34500;BME280;20745;50.882;6.962;2023-02-13T11:46:29;102998.81;;;11.08;100.00
34500;BME280;20745;50.882;6.962;2023-02-13T11:51:38;102997.19;;;11.17;100.00
34500;BME280;20745;50.882;6.962;2023-02-13T11:56:49;102985.56;;;11.26;100.00
34500;BME280;20745;50.882;6.962;2023-02-13T11:59:38;102978.03;;;11.29;100.00
34500;BME280;20745;50.882;6.962;2023-02-13T12:02:25;102974.56;;;11.38;100.00
34500;BME280;20745;50.882;6.962;2023-02-13T12:04:54;102961.75;;;11.40;100.00
34500;BME280;20745;50.882;6.962;2023-02-13T12:07:24;102957.78;;;11.44;100.00
34500;BME280;20745;50.882;6.962;2023-02-13T12:15:36;102962.72;;;11.60;100.00
34500;BME280;20745;50.882;6.962;2023-02-13T12:18:20;102962.09;;;11.67;100.00
34500;BME280;20745;50.882;6.962;2023-02-13T12:21:08;102949.13;;;11.71;100.00
34500;BME280;20745;50.882;6.962;2023-02-13T12:26:31;102960.03;;;11.80;100.00
34500;BME280;20745;50.882;6.962;2023-02-13T12:39:32;102947.81;;;11.95;100.00
34500;BME280;20745;50.882;6.962;2023-02-13T12:44:59;102936.03;;;12.06;100.00
34500;BME280;20745;50.882;6.962;2023-02-13T12:47:32;102940.19;;;12.10;100.00
34500;BME280;20745;50.882;6.962;2023-02-13T12:50:16;102937.94;;;12.15;100.00
34500;BME280;20745;50.882;6.962;2023-02-13T13:02:07;102900.88;;;12.25;100.00
34500;BME280;20745;50.882;6.962;2023-02-13T13:05:07;102908.28;;;12.32;100.00
34500;BME280;20745;50.882;6.962;2023-02-13T13:08:23;102916.03;;;12.47;100.00
34500;BME280;20745;50.882;6.962;2023-02-13T13:13:48;102908.19;;;12.44;100.00
34500;BME280;20745;50.882;6.962;2023-02-13T13:19:13;102904.34;;;12.37;100.00
34500;BME280;20745;50.882;6.962;2023-02-13T13:26:58;102905.75;;;12.50;100.00
34500;BME280;20745;50.882;6.962;2023-02-13T13:29:31;102897.75;;;12.49;100.00
34500;BME280;20745;50.882;6.962;2023-02-13T13:32:05;102897.22;;;12.55;100.00
34500;BME280;20745;50.882;6.962;2023-02-13T13:34:34;102894.81;;;12.61;100.00
34500;BME280;20745;50.882;6.962;2023-02-13T13:42:47;102884.22;;;12.77;100.00
34500;BME280;20745;50.882;6.962;2023-02-13T13:45:29;102883.78;;;12.82;100.00
34500;BME280;20745;50.882;6.962;2023-02-13T13:50:47;102887.91;;;12.86;100.00
34500;BME280;20745;50.882;6.962;2023-02-13T13:53:19;102875.94;;;12.88;100.00
34500;BME280;20745;50.882;6.962;2023-02-13T13:58:46;102869.38;;;12.91;100.00
34500;BME280;20745;50.882;6.962;2023-02-13T14:08:54;102863.22;;;12.89;82.70
34500;BME280;20745;50.882;6.962;2023-02-13T14:11:00;102866.09;;;12.97;81.60
34500;BME280;20745;50.882;6.962;2023-02-13T14:13:34;102870.25;;;13.01;81.91
34500;BME280;20745;50.882;6.962;2023-02-13T14:16:03;102866.38;;;13.03;81.17
34500;BME280;20745;50.882;6.962;2023-02-13T14:18:31;102853.25;;;13.08;80.29
34500;BME280;20745;50.882;6.962;2023-02-13T14:21:00;102861.25;;;13.10;79.35
34500;BME280;20745;50.882;6.962;2023-02-13T14:31:22;102855.53;;;13.03;82.82
34500;BME280;20745;50.882;6.962;2023-02-13T14:34:02;102844.38;;;13.06;81.58
34500;BME280;20745;50.882;6.962;2023-02-13T14:36:32;102847.97;;;13.07;81.72
34500;BME280;20745;50.882;6.962;2023-02-13T14:39:23;102852.69;;;13.05;81.59
34500;BME280;20745;50.882;6.962;2023-02-13T14:44:44;102850.53;;;13.08;79.98
34500;BME280;20745;50.882;6.962;2023-02-13T14:47:42;102839.84;;;13.07;81.27
34500;BME280;20745;50.882;6.962;2023-02-13T14:50:16;102850.94;;;13.13;81.31
34500;BME280;20745;50.882;6.962;2023-02-13T14:52:45;102848.81;;;13.17;80.80
34500;BME280;20745;50.882;6.962;2023-02-13T14:55:31;102847.22;;;13.14;81.08
34500;BME280;20745;50.882;6.962;2023-02-13T14:58:35;102842.66;;;13.15;81.04
34500;BME280;20745;50.882;6.962;2023-02-13T15:00:59;102854.38;;;13.15;81.62
34500;BME280;20745;50.882;6.962;2023-02-13T15:03:40;102849.78;;;13.16;81.18
34500;BME280;20745;50.882;6.962;2023-02-13T15:06:25;102841.50;;;13.17;81.72
34500;BME280;20745;50.882;6.962;2023-02-13T15:08:53;102847.06;;;13.16;82.93
34500;BME280;20745;50.882;6.962;2023-02-13T15:11:39;102845.38;;;13.15;82.89